< < Back
Terminal Aerodrome Forecast


Current Version              Previous Versions:   1  2  3  4  5  6  7  8  9  

Terminal Aerodrome Forecast

076
FTUS42 KTAE 250500
TAFABY
TAF
KABY 250526Z 2506/2606 00000KT P6SM SKC
     FM251700 22012G19KT P6SM SCT050 SCT100
     FM260100 23010KT P6SM SCT100=

Latest METAR

365
SAUS70 KWBC 251000 RRB
MTRABY
METAR KABY 250953Z AUTO 00000KT 10SM CLR 01/M01 A3007 RMK AO2 SLP183
T00061011 FZRANO


USA.gov is the U.S. government's official web portal to all federal, state and local government web resources and services.